Time;durP1;ratioP1;P1;durP2;ratioP2;P2;SDS_P1;SDS_P2;PMS_P1;PMS_P2;Temp;Humidity;BMP_temperature;BMP_pressure;BME280_temperature;BME280_humidity;BME280_pressure;Samples;Min_cycle;Max_cycle;Signal;HPM_P1;HPM_P2
2022/11/25 00:00:53;;;;;;;14.48;3.13;;;;;;;;;;5050708;28;20124;-80
2022/11/25 00:03:19;;;;;;;13.95;2.97;;;;;;;;;;5051021;28;20482;-80
2022/11/25 00:05:45;;;;;;;18.55;3.83;;;;;;;;;;5052084;28;20043;-80
2022/11/25 00:08:11;;;;;;;15.13;3.65;;;;;;;;;;5050745;28;20041;-80
2022/11/25 00:10:37;;;;;;;13.82;2.92;;;;;;;;;;5084741;28;20049;-79
2022/11/25 00:13:03;;;;;;;20.00;3.28;;;;;;;;;;5051019;28;20483;-79
2022/11/25 00:15:30;;;;;;;14.25;2.70;;;;;;;;;;5034632;28;20532;-79
2022/11/25 00:17:56;;;;;;;16.80;3.05;;;;;;;;;;5052023;28;20071;-79
2022/11/25 00:20:22;;;;;;;10.45;2.95;;;;;;;;;;5052076;28;20041;-79
2022/11/25 00:22:48;;;;;;;18.10;3.35;;;;;;;;;;5050697;28;20521;-79
2022/11/25 00:25:14;;;;;;;11.35;2.95;;;;;;;;;;5051086;28;20436;-79
2022/11/25 00:27:40;;;;;;;15.88;3.25;;;;;;;;;;5034167;28;20041;-79
2022/11/25 00:30:06;;;;;;;17.20;3.03;;;;;;;;;;5054217;28;20044;-78
2022/11/25 00:32:32;;;;;;;16.55;3.67;;;;;;;;;;5054581;28;20041;-79
2022/11/25 00:34:58;;;;;;;11.55;3.38;;;;;;;;;;5054338;28;20076;-79
2022/11/25 00:37:26;;;;;;;15.30;3.40;;;;;;;;;;5085227;28;20391;-78
2022/11/25 00:39:52;;;;;;;12.15;2.75;;;;;;;;;;5043821;28;20045;-77
2022/11/25 00:45:03;;;;;;;16.38;3.67;;;;;;;;;;5055345;28;20053;-77
2022/11/25 00:47:29;;;;;;;16.30;2.83;;;;;;;;;;5055390;28;20509;-78
2022/11/25 00:49:55;;;;;;;10.98;2.60;;;;;;;;;;5053838;28;20048;-78
2022/11/25 00:52:22;;;;;;;15.63;2.63;;;;;;;;;;5054499;28;20490;-78
2022/11/25 00:54:49;;;;;;;10.98;3.15;;;;;;;;;;5053744;28;20119;-78
2022/11/25 00:57:16;;;;;;;12.60;2.85;;;;;;;;;;5053986;28;20045;-78
2022/11/25 00:59:42;;;;;;;13.93;2.50;;;;;;;;;;5053920;28;20123;-78
2022/11/25 01:02:09;;;;;;;14.70;2.92;;;;;;;;;;5050949;28;20037;-78
2022/11/25 01:04:35;;;;;;;20.45;2.83;;;;;;;;;;5055125;28;20516;-79
2022/11/25 01:07:02;;;;;;;13.95;2.97;;;;;;;;;;5053583;28;20091;-79
2022/11/25 01:09:28;;;;;;;10.95;2.72;;;;;;;;;;5053868;28;20120;-79
2022/11/25 01:11:54;;;;;;;10.43;2.90;;;;;;;;;;5053507;28;20079;-78
2022/11/25 01:14:21;;;;;;;16.98;3.00;;;;;;;;;;5054862;28;20163;-79
2022/11/25 01:16:47;;;;;;;14.63;2.70;;;;;;;;;;5053382;28;20052;-79
2022/11/25 01:19:13;;;;;;;11.88;3.17;;;;;;;;;;5054044;28;20363;-79
2022/11/25 01:21:39;;;;;;;16.02;3.65;;;;;;;;;;5053931;28;20044;-78
2022/11/25 01:24:06;;;;;;;15.48;3.00;;;;;;;;;;5036477;28;20048;-77
2022/11/25 01:26:32;;;;;;;10.50;2.50;;;;;;;;;;5037053;28;20047;-79
2022/11/25 01:29:00;;;;;;;15.50;3.47;;;;;;;;;;5053192;28;20142;-77
2022/11/25 01:31:27;;;;;;;14.10;3.60;;;;;;;;;;5037174;28;20029;-77
2022/11/25 01:33:57;;;;;;;13.48;3.10;;;;;;;;;;5086390;28;20095;-79
2022/11/25 01:36:23;;;;;;;18.10;3.50;;;;;;;;;;5053359;28;20049;-80
2022/11/25 01:38:51;;;;;;;15.23;3.05;;;;;;;;;;5020249;28;20049;-79
2022/11/25 01:41:17;;;;;;;18.05;3.00;;;;;;;;;;5046164;28;20041;-80
2022/11/25 01:43:44;;;;;;;12.27;3.03;;;;;;;;;;5047837;28;20060;-78
2022/11/25 01:46:25;;;;;;;18.05;3.50;;;;;;;;;;5036832;28;20559;-79
2022/11/25 01:48:54;;;;;;;13.82;3.65;;;;;;;;;;5086911;28;20047;-80
2022/11/25 01:51:23;;;;;;;10.23;3.58;;;;;;;;;;5045222;28;20049;-79
2022/11/25 01:53:50;;;;;;;17.02;3.80;;;;;;;;;;5062593;28;20040;-80
2022/11/25 01:56:16;;;;;;;16.58;3.70;;;;;;;;;;5053399;28;20040;-78
2022/11/25 01:58:43;;;;;;;15.38;4.00;;;;;;;;;;5053364;28;20047;-78
2022/11/25 02:01:10;;;;;;;18.70;3.85;;;;;;;;;;5054204;28;20037;-78
2022/11/25 02:03:39;;;;;;;21.38;4.07;;;;;;;;;;5053071;28;20089;-78
2022/11/25 02:06:09;;;;;;;15.10;3.83;;;;;;;;;;5051660;28;20041;-78
2022/11/25 02:08:35;;;;;;;19.83;4.35;;;;;;;;;;5054217;28;20069;-78
2022/11/25 02:11:03;;;;;;;11.15;3.70;;;;;;;;;;5035927;28;20151;-78
2022/11/25 02:13:30;;;;;;;15.75;3.67;;;;;;;;;;5052824;28;20052;-78
2022/11/25 02:15:56;;;;;;;19.73;3.63;;;;;;;;;;5053779;28;20115;-79
2022/11/25 02:18:22;;;;;;;14.65;3.65;;;;;;;;;;5053323;28;20509;-80
2022/11/25 02:20:48;;;;;;;14.75;3.25;;;;;;;;;;5052945;28;20053;-79
2022/11/25 02:23:24;;;;;;;14.35;3.67;;;;;;;;;;5052639;28;20036;-79
2022/11/25 02:25:51;;;;;;;21.58;3.80;;;;;;;;;;5054242;28;20067;-78
2022/11/25 02:28:25;;;;;;;19.30;3.88;;;;;;;;;;5052357;28;20557;-78
2022/11/25 02:30:52;;;;;;;20.13;4.00;;;;;;;;;;5052874;28;20512;-78
2022/11/25 02:33:18;;;;;;;20.95;4.25;;;;;;;;;;5035813;28;20478;-78
2022/11/25 02:35:44;;;;;;;17.80;3.47;;;;;;;;;;5052329;28;20091;-78
2022/11/25 02:38:16;;;;;;;21.60;4.25;;;;;;;;;;5085778;28;20071;-79
2022/11/25 02:40:51;;;;;;;18.00;4.45;;;;;;;;;;5052577;28;20037;-78
2022/11/25 02:43:17;;;;;;;15.30;3.80;;;;;;;;;;5052176;28;20063;-78
2022/11/25 02:45:55;;;;;;;15.07;3.70;;;;;;;;;;5053746;28;20048;-79
2022/11/25 02:48:21;;;;;;;19.33;3.38;;;;;;;;;;5035538;28;20080;-79
2022/11/25 02:50:48;;;;;;;18.25;4.45;;;;;;;;;;5053696;28;20433;-80
2022/11/25 02:53:15;;;;;;;23.02;4.28;;;;;;;;;;5034705;28;20041;-80
2022/11/25 02:55:41;;;;;;;22.20;5.30;;;;;;;;;;5053314;28;20037;-79
2022/11/25 02:58:07;;;;;;;22.25;4.65;;;;;;;;;;5053735;28;20041;-80
2022/11/25 03:00:33;;;;;;;17.25;4.25;;;;;;;;;;5052847;28;20041;-80
2022/11/25 03:03:00;;;;;;;20.80;4.78;;;;;;;;;;5045162;28;20040;-79
2022/11/25 03:05:26;;;;;;;19.65;4.53;;;;;;;;;;5052056;28;20263;-80
2022/11/25 03:07:52;;;;;;;27.17;5.47;;;;;;;;;;5054508;28;20048;-80
2022/11/25 03:10:18;;;;;;;20.83;5.07;;;;;;;;;;5052937;28;20044;-80
2022/11/25 03:12:44;;;;;;;17.58;4.53;;;;;;;;;;5038295;28;20090;-81
2022/11/25 03:15:11;;;;;;;16.85;4.18;;;;;;;;;;5052017;28;20497;-81
2022/11/25 03:17:37;;;;;;;17.23;4.45;;;;;;;;;;5052357;28;20032;-80
2022/11/25 03:20:04;;;;;;;20.50;4.80;;;;;;;;;;5052238;28;20463;-81
2022/11/25 03:22:30;;;;;;;22.55;4.32;;;;;;;;;;5053115;28;20139;-77
2022/11/25 03:24:56;;;;;;;22.58;4.85;;;;;;;;;;5051934;28;20135;-78
2022/11/25 03:27:22;;;;;;;19.77;5.07;;;;;;;;;;5035173;28;20053;-78
2022/11/25 03:29:48;;;;;;;23.88;4.55;;;;;;;;;;5051952;28;20490;-78
2022/11/25 03:32:15;;;;;;;24.30;4.60;;;;;;;;;;5051487;28;20045;-78
2022/11/25 03:34:41;;;;;;;14.82;4.60;;;;;;;;;;5051039;28;20076;-78
2022/11/25 03:37:08;;;;;;;16.50;4.10;;;;;;;;;;5034871;28;20040;-78
2022/11/25 03:39:34;;;;;;;23.75;4.47;;;;;;;;;;5051424;28;20033;-80
2022/11/25 03:42:00;;;;;;;22.70;4.93;;;;;;;;;;5051476;28;20043;-77
2022/11/25 03:44:26;;;;;;;20.58;4.35;;;;;;;;;;5052636;28;20120;-78
2022/11/25 03:46:52;;;;;;;23.60;5.18;;;;;;;;;;5045318;28;20509;-78
2022/11/25 03:49:20;;;;;;;25.88;4.97;;;;;;;;;;5044473;28;20052;-78
2022/11/25 03:51:46;;;;;;;21.05;4.47;;;;;;;;;;5051455;28;20493;-77
2022/11/25 03:54:12;;;;;;;22.23;4.82;;;;;;;;;;5034246;28;20044;-77
2022/11/25 03:56:38;;;;;;;13.15;4.40;;;;;;;;;;5048451;28;20041;-78
2022/11/25 03:59:04;;;;;;;27.17;4.78;;;;;;;;;;5039821;28;20040;-78
2022/11/25 04:01:31;;;;;;;21.25;4.78;;;;;;;;;;5084206;28;20052;-78
2022/11/25 04:03:57;;;;;;;25.50;4.60;;;;;;;;;;5051225;28;20040;-78
2022/11/25 04:06:23;;;;;;;19.73;4.40;;;;;;;;;;5056138;28;20045;-78
2022/11/25 04:08:50;;;;;;;29.50;5.05;;;;;;;;;;5041173;28;20037;-78
2022/11/25 04:11:16;;;;;;;20.75;4.57;;;;;;;;;;5055069;28;20049;-78
2022/11/25 04:13:42;;;;;;;23.75;4.60;;;;;;;;;;5052585;28;20029;-79
2022/11/25 04:16:25;;;;;;;20.92;4.53;;;;;;;;;;5054378;28;20067;-79
2022/11/25 04:18:51;;;;;;;22.90;5.15;;;;;;;;;;5055129;28;20037;-78
2022/11/25 04:21:17;;;;;;;20.17;4.53;;;;;;;;;;5054709;28;20121;-79
2022/11/25 04:23:43;;;;;;;24.63;4.53;;;;;;;;;;5056407;28;20605;-79
2022/11/25 04:26:09;;;;;;;22.25;5.13;;;;;;;;;;5054993;28;20397;-78
2022/11/25 04:28:35;;;;;;;24.42;4.47;;;;;;;;;;5054537;28;20124;-78
2022/11/25 04:31:05;;;;;;;18.45;4.70;;;;;;;;;;5054858;28;20044;-78
2022/11/25 04:33:31;;;;;;;19.50;4.93;;;;;;;;;;5055962;28;20403;-79
2022/11/25 04:35:57;;;;;;;22.85;5.00;;;;;;;;;;5037846;28;20110;-79
2022/11/25 04:38:23;;;;;;;25.08;5.15;;;;;;;;;;5054726;28;20574;-79
2022/11/25 04:40:49;;;;;;;27.23;4.78;;;;;;;;;;5055068;28;20386;-79
2022/11/25 04:43:16;;;;;;;23.17;5.25;;;;;;;;;;5055554;28;20454;-79
2022/11/25 04:45:42;;;;;;;24.23;4.15;;;;;;;;;;5044404;28;20080;-79
2022/11/25 04:48:08;;;;;;;22.88;5.00;;;;;;;;;;5050911;28;20056;-80
2022/11/25 04:50:34;;;;;;;23.55;5.43;;;;;;;;;;5055615;28;20045;-79
2022/11/25 04:53:00;;;;;;;19.38;5.00;;;;;;;;;;5054209;28;20123;-81
2022/11/25 04:55:26;;;;;;;26.38;5.10;;;;;;;;;;5069042;28;20041;-81
2022/11/25 04:57:52;;;;;;;18.90;4.50;;;;;;;;;;5074259;28;20036;-81
2022/11/25 05:00:18;;;;;;;20.83;5.00;;;;;;;;;;5070665;28;20051;-81
2022/11/25 05:02:44;;;;;;;25.92;5.05;;;;;;;;;;5057176;28;20509;-79
2022/11/25 05:05:10;;;;;;;20.60;5.60;;;;;;;;;;5074956;28;20511;-79
2022/11/25 05:07:37;;;;;;;19.85;5.40;;;;;;;;;;5056663;28;20162;-81
2022/11/25 05:10:04;;;;;;;23.27;5.93;;;;;;;;;;5060828;28;20505;-80
2022/11/25 05:12:30;;;;;;;22.95;4.82;;;;;;;;;;5076548;28;20052;-81
2022/11/25 05:14:56;;;;;;;20.48;5.10;;;;;;;;;;5064869;28;20090;-81
2022/11/25 05:17:24;;;;;;;18.30;5.20;;;;;;;;;;5038594;28;20049;-80
2022/11/25 05:19:50;;;;;;;20.55;5.13;;;;;;;;;;5054011;28;20124;-81
2022/11/25 05:22:18;;;;;;;16.23;5.13;;;;;;;;;;5054166;28;20510;-79
2022/11/25 05:24:44;;;;;;;19.45;4.75;;;;;;;;;;5053866;28;20182;-81
2022/11/25 05:27:11;;;;;;;22.77;5.50;;;;;;;;;;5053947;28;20402;-81
2022/11/25 05:29:37;;;;;;;23.00;5.70;;;;;;;;;;5049276;28;20147;-81
2022/11/25 05:32:04;;;;;;;19.90;5.65;;;;;;;;;;5044802;28;20068;-80
2022/11/25 05:34:30;;;;;;;18.98;5.82;;;;;;;;;;5054134;28;20052;-81
2022/11/25 05:36:56;;;;;;;22.95;5.43;;;;;;;;;;5056084;28;20612;-81
2022/11/25 05:39:22;;;;;;;20.02;5.55;;;;;;;;;;5023491;28;20521;-81
2022/11/25 05:41:48;;;;;;;26.75;5.78;;;;;;;;;;5055107;28;20044;-81
2022/11/25 05:44:14;;;;;;;26.33;6.40;;;;;;;;;;5054653;28;20040;-79
2022/11/25 05:46:40;;;;;;;25.65;5.32;;;;;;;;;;5052853;28;20397;-81
2022/11/25 05:49:06;;;;;;;15.73;5.13;;;;;;;;;;5053140;28;20051;-79
2022/11/25 05:51:32;;;;;;;17.17;5.50;;;;;;;;;;5053070;28;20043;-81
2022/11/25 05:53:59;;;;;;;18.05;5.55;;;;;;;;;;5054486;28;20094;-81
2022/11/25 05:56:25;;;;;;;19.38;5.32;;;;;;;;;;5053066;28;20516;-81
2022/11/25 05:58:53;;;;;;;16.80;5.15;;;;;;;;;;5053156;28;20041;-80
2022/11/25 06:01:19;;;;;;;21.88;6.18;;;;;;;;;;5053458;28;20052;-79
2022/11/25 06:03:45;;;;;;;22.30;5.13;;;;;;;;;;5053061;28;20498;-79
2022/11/25 06:06:12;;;;;;;21.17;6.00;;;;;;;;;;5053119;28;20502;-79
2022/11/25 06:08:38;;;;;;;20.83;6.28;;;;;;;;;;5052351;28;20044;-79
2022/11/25 06:11:14;;;;;;;20.77;6.20;;;;;;;;;;5052917;28;20043;-79
2022/11/25 06:13:40;;;;;;;;;;;;;;;;;;5052952;28;20037;-79
2022/11/25 06:16:10;;;;;;;21.05;5.95;;;;;;;;;;5036271;28;19999;-79
2022/11/25 06:18:37;;;;;;;21.83;5.78;;;;;;;;;;5053138;28;20045;-79
2022/11/25 06:21:04;;;;;;;19.48;5.57;;;;;;;;;;5042230;28;20123;-79
2022/11/25 06:23:30;;;;;;;19.40;5.47;;;;;;;;;;5056361;28;20058;-79
2022/11/25 06:26:02;;;;;;;22.90;5.45;;;;;;;;;;5056206;28;20044;-79
2022/11/25 06:28:28;;;;;;;19.33;5.55;;;;;;;;;;5070975;28;20056;-79
2022/11/25 06:30:54;;;;;;;16.85;5.32;;;;;;;;;;5060910;28;20040;-80
2022/11/25 06:33:20;;;;;;;17.00;4.88;;;;;;;;;;5056403;28;20538;-79
2022/11/25 06:35:46;;;;;;;20.83;6.68;;;;;;;;;;5071789;28;20068;-80
2022/11/25 06:38:12;;;;;;;15.02;5.32;;;;;;;;;;5072488;28;20049;-81
2022/11/25 06:40:38;;;;;;;15.52;4.80;;;;;;;;;;5050358;28;20052;-81
2022/11/25 06:43:04;;;;;;;20.92;5.22;;;;;;;;;;5063625;28;20075;-79
2022/11/25 06:45:32;;;;;;;19.23;5.88;;;;;;;;;;5038391;28;20045;-79
2022/11/25 06:47:58;;;;;;;18.00;5.35;;;;;;;;;;5052442;28;20414;-79
2022/11/25 06:50:24;;;;;;;20.52;4.90;;;;;;;;;;5068775;28;20098;-79
2022/11/25 06:52:50;;;;;;;13.80;4.68;;;;;;;;;;5048155;28;20044;-81
2022/11/25 06:55:16;;;;;;;23.38;4.93;;;;;;;;;;5052594;28;20120;-81
2022/11/25 06:57:42;;;;;;;18.15;4.40;;;;;;;;;;5072716;28;20036;-79
2022/11/25 07:00:08;;;;;;;20.90;4.55;;;;;;;;;;5060444;28;20128;-79
2022/11/25 07:02:34;;;;;;;13.02;3.75;;;;;;;;;;5070738;28;20089;-80
2022/11/25 07:05:01;;;;;;;16.45;5.03;;;;;;;;;;5056125;28;20044;-81
2022/11/25 07:07:27;;;;;;;15.68;4.47;;;;;;;;;;5071761;28;20044;-80
2022/11/25 07:09:53;;;;;;;15.75;4.80;;;;;;;;;;5071673;28;20043;-80
2022/11/25 07:12:19;;;;;;;17.58;4.40;;;;;;;;;;5055996;28;20480;-80
2022/11/25 07:14:45;;;;;;;15.40;4.50;;;;;;;;;;5053704;28;20399;-81
2022/11/25 07:17:11;;;;;;;14.60;4.38;;;;;;;;;;5052714;28;20040;-80
2022/11/25 07:19:37;;;;;;;19.02;5.30;;;;;;;;;;5051547;28;20037;-80
2022/11/25 07:22:03;;;;;;;14.90;4.50;;;;;;;;;;5040139;28;20037;-80
2022/11/25 07:24:29;;;;;;;15.52;4.28;;;;;;;;;;5049774;28;20115;-80
2022/11/25 07:26:56;;;;;;;13.68;4.50;;;;;;;;;;5051923;28;20040;-79
2022/11/25 07:29:22;;;;;;;16.67;4.32;;;;;;;;;;5050432;28;20512;-80
2022/11/25 07:31:48;;;;;;;17.38;4.10;;;;;;;;;;5039709;28;20037;-81
2022/11/25 07:34:16;;;;;;;11.10;3.97;;;;;;;;;;5052802;28;20537;-81
2022/11/25 07:36:42;;;;;;;17.52;4.70;;;;;;;;;;5037217;28;20511;-81
2022/11/25 07:39:11;;;;;;;14.48;4.55;;;;;;;;;;5050776;28;20045;-81
2022/11/25 07:41:38;;;;;;;13.02;4.63;;;;;;;;;;5050670;28;20037;-81
2022/11/25 07:44:04;;;;;;;14.55;3.95;;;;;;;;;;5051375;28;20493;-81
2022/11/25 07:46:32;;;;;;;14.80;4.25;;;;;;;;;;5050986;28;20037;-80
2022/11/25 07:49:00;;;;;;;12.23;4.35;;;;;;;;;;5051880;28;20132;-80
2022/11/25 07:51:28;;;;;;;14.30;4.60;;;;;;;;;;5050884;28;20040;-81
2022/11/25 07:53:55;;;;;;;16.25;4.35;;;;;;;;;;5051923;28;20040;-81
2022/11/25 07:56:21;;;;;;;12.18;4.13;;;;;;;;;;5051096;28;20513;-80
2022/11/25 07:58:47;;;;;;;16.48;5.00;;;;;;;;;;5052180;28;20071;-80
2022/11/25 08:01:14;;;;;;;12.55;4.65;;;;;;;;;;5050901;28;20052;-81
2022/11/25 08:03:41;;;;;;;19.70;5.13;;;;;;;;;;5050396;28;20055;-81
2022/11/25 08:06:09;;;;;;;17.45;5.03;;;;;;;;;;5051056;28;20124;-81
2022/11/25 08:08:36;;;;;;;12.48;4.35;;;;;;;;;;5051969;28;20504;-81
2022/11/25 08:11:05;;;;;;;15.75;5.43;;;;;;;;;;5050306;28;20041;-81
2022/11/25 08:13:31;;;;;;;15.00;4.15;;;;;;;;;;5050746;28;20052;-81
2022/11/25 08:15:59;;;;;;;14.20;4.72;;;;;;;;;;5050279;28;20130;-81
2022/11/25 08:18:25;;;;;;;13.20;4.68;;;;;;;;;;5051064;28;20049;-81
2022/11/25 08:20:51;;;;;;;11.02;4.82;;;;;;;;;;5051730;28;20048;-81
2022/11/25 08:23:17;;;;;;;10.18;4.57;;;;;;;;;;5034245;28;20486;-81
2022/11/25 08:25:43;;;;;;;11.63;4.30;;;;;;;;;;5050633;28;20397;-81
2022/11/25 08:28:10;;;;;;;8.73;3.70;;;;;;;;;;5051668;28;20039;-80
2022/11/25 08:30:36;;;;;;;9.35;3.40;;;;;;;;;;5051490;28;20041;-80
2022/11/25 08:33:04;;;;;;;6.82;3.10;;;;;;;;;;5050590;28;20390;-80
2022/11/25 08:35:31;;;;;;;8.88;3.08;;;;;;;;;;5050708;28;20122;-80
2022/11/25 08:37:57;;;;;;;5.80;2.63;;;;;;;;;;5050431;28;20447;-81
2022/11/25 08:40:23;;;;;;;6.97;2.40;;;;;;;;;;5051774;28;20048;-80
2022/11/25 08:42:49;;;;;;;5.28;2.38;;;;;;;;;;5050131;28;20052;-81
2022/11/25 08:45:16;;;;;;;8.75;2.92;;;;;;;;;;5033980;28;20101;-81
2022/11/25 08:47:42;;;;;;;5.60;2.85;;;;;;;;;;5050755;28;20045;-81
2022/11/25 08:50:09;;;;;;;9.25;2.70;;;;;;;;;;5050848;28;20478;-80
2022/11/25 08:52:35;;;;;;;7.03;2.47;;;;;;;;;;5054309;28;20045;-81
2022/11/25 08:55:01;;;;;;;7.47;2.53;;;;;;;;;;5053903;28;20056;-81
2022/11/25 08:57:28;;;;;;;8.88;2.88;;;;;;;;;;5037659;28;20041;-81
2022/11/25 08:59:54;;;;;;;5.13;2.60;;;;;;;;;;5037226;28;20048;-81
2022/11/25 09:02:20;;;;;;;9.13;2.72;;;;;;;;;;5054394;28;20045;-82
2022/11/25 09:04:46;;;;;;;6.00;2.78;;;;;;;;;;5053839;28;20091;-81
2022/11/25 09:07:12;;;;;;;6.72;2.70;;;;;;;;;;5055004;28;20041;-82
2022/11/25 09:09:38;;;;;;;6.15;2.95;;;;;;;;;;5054089;28;20052;-81
2022/11/25 09:12:04;;;;;;;7.45;2.60;;;;;;;;;;5053958;28;20474;-82
2022/11/25 09:14:30;;;;;;;8.02;2.88;;;;;;;;;;5054380;28;20111;-82
2022/11/25 09:16:56;;;;;;;8.40;2.72;;;;;;;;;;5054067;28;20551;-82
2022/11/25 09:19:22;;;;;;;7.13;2.50;;;;;;;;;;5054295;28;20388;-82
2022/11/25 09:21:49;;;;;;;7.38;2.65;;;;;;;;;;5053637;28;20136;-82
2022/11/25 09:24:15;;;;;;;6.97;2.55;;;;;;;;;;5055505;28;20072;-82
2022/11/25 09:26:42;;;;;;;7.18;2.42;;;;;;;;;;5054569;28;20478;-82
2022/11/25 09:29:08;;;;;;;5.63;2.70;;;;;;;;;;5053401;28;20544;-82
2022/11/25 09:31:34;;;;;;;5.82;2.35;;;;;;;;;;5055093;28;20052;-82
2022/11/25 09:34:00;;;;;;;7.38;2.42;;;;;;;;;;5054130;28;20383;-82
2022/11/25 09:36:26;;;;;;;6.65;2.78;;;;;;;;;;5041212;28;20126;-79
2022/11/25 09:38:52;;;;;;;8.05;2.53;;;;;;;;;;5053491;28;20110;-80
2022/11/25 09:47:33;;;;;;;5.40;2.15;;;;;;;;;;5043516;28;20041;-80
2022/11/25 09:50:32;;;;;;;5.43;2.28;;;;;;;;;;5054078;28;20037;-81
2022/11/25 09:53:01;;;;;;;7.45;2.40;;;;;;;;;;5022108;28;20046;-80
2022/11/25 09:55:30;;;;;;;8.55;2.50;;;;;;;;;;5053362;28;20045;-81
2022/11/25 09:57:59;;;;;;;5.25;2.35;;;;;;;;;;5054536;28;20040;-80
2022/11/25 10:00:28;;;;;;;6.25;2.40;;;;;;;;;;5053154;28;20045;-80
2022/11/25 10:03:12;;;;;;;6.57;2.63;;;;;;;;;;5052421;28;20063;-80
2022/11/25 10:05:42;;;;;;;5.35;2.47;;;;;;;;;;5033322;28;20053;-81
2022/11/25 10:08:10;;;;;;;6.25;2.45;;;;;;;;;;5047125;28;20049;-81
2022/11/25 10:10:46;;;;;;;4.80;2.20;;;;;;;;;;5065555;28;20041;-81
2022/11/25 10:13:12;;;;;;;;;;;;;;;;;;5073222;28;20045;-81
2022/11/25 10:15:44;;;;;;;6.43;2.50;;;;;;;;;;5057698;28;20003;-81
2022/11/25 10:18:18;;;;;;;9.77;2.42;;;;;;;;;;5053051;28;20037;-81
2022/11/25 10:20:44;;;;;;;7.28;2.20;;;;;;;;;;5054252;28;20041;-81
2022/11/25 10:23:15;;;;;;;6.35;2.20;;;;;;;;;;5052421;28;20037;-81
2022/11/25 10:25:44;;;;;;;7.38;2.00;;;;;;;;;;5036466;28;20394;-81
2022/11/25 10:28:24;;;;;;;7.18;2.30;;;;;;;;;;5052188;28;20095;-80
2022/11/25 10:30:59;;;;;;;7.57;2.30;;;;;;;;;;5085983;28;20044;-80
2022/11/25 10:33:33;;;;;;;6.18;2.03;;;;;;;;;;5035978;28;20128;-80
2022/11/25 10:36:25;;;;;;;6.00;2.30;;;;;;;;;;5053284;28;20514;-80
2022/11/25 10:38:56;;;;;;;7.85;2.20;;;;;;;;;;5051304;28;20052;-80
2022/11/25 10:41:28;;;;;;;6.65;2.20;;;;;;;;;;5051999;28;20038;-80
2022/11/25 10:43:54;;;;;;;5.53;2.28;;;;;;;;;;5042517;28;20115;-80
2022/11/25 10:46:23;;;;;;;6.47;2.30;;;;;;;;;;5052407;28;20041;-81
2022/11/25 10:48:56;;;;;;;7.63;2.13;;;;;;;;;;5054185;28;20040;-81
2022/11/25 10:51:31;;;;;;;8.00;2.10;;;;;;;;;;5052011;28;20045;-80
2022/11/25 10:53:57;;;;;;;;;;;;;;;;;;5041495;28;20429;-81
2022/11/25 10:56:23;;;;;;;9.48;2.10;;;;;;;;;;5052453;28;19917;-80
2022/11/25 10:58:49;;;;;;;6.90;2.35;;;;;;;;;;5035556;28;20044;-80
2022/11/25 11:01:24;;;;;;;8.32;1.95;;;;;;;;;;5035361;28;20049;-80
2022/11/25 11:03:52;;;;;;;8.60;2.20;;;;;;;;;;5051979;28;20047;-79
2022/11/25 11:06:42;;;;;;;8.75;1.95;;;;;;;;;;5052079;28;20048;-80
2022/11/25 11:09:31;;;;;;;9.23;1.80;;;;;;;;;;5033777;28;20052;-80
2022/11/25 11:11:58;;;;;;;8.65;1.98;;;;;;;;;;5046446;28;20053;-80
2022/11/25 11:14:28;;;;;;;7.68;2.13;;;;;;;;;;5034187;28;20037;-80
2022/11/25 11:16:55;;;;;;;8.65;1.70;;;;;;;;;;5052228;28;20096;-79
2022/11/25 11:19:23;;;;;;;9.40;2.10;;;;;;;;;;5051542;28;20132;-79
2022/11/25 11:21:50;;;;;;;12.48;2.60;;;;;;;;;;5051766;28;20094;-79
2022/11/25 11:24:25;;;;;;;9.68;1.50;;;;;;;;;;5051683;28;20439;-79
2022/11/25 11:27:14;;;;;;;9.82;1.83;;;;;;;;;;5051792;28;20044;-79
2022/11/25 11:29:40;;;;;;;10.73;2.20;;;;;;;;;;5037790;28;20131;-80
2022/11/25 11:32:18;;;;;;;11.23;2.15;;;;;;;;;;5052715;28;20115;-79
2022/11/25 11:34:54;;;;;;;8.57;1.88;;;;;;;;;;5051585;28;20049;-79
2022/11/25 11:37:42;;;;;;;9.68;1.80;;;;;;;;;;5052560;28;20502;-79
2022/11/25 11:40:18;;;;;;;12.40;1.98;;;;;;;;;;5038363;28;20037;-79
2022/11/25 11:42:57;;;;;;;13.52;2.30;;;;;;;;;;5037485;28;20132;-79
2022/11/25 11:45:23;;;;;;;15.60;2.15;;;;;;;;;;5051855;28;20045;-79
2022/11/25 11:47:58;;;;;;;9.27;2.22;;;;;;;;;;5034890;28;20045;-79
2022/11/25 11:50:24;;;;;;;13.30;2.10;;;;;;;;;;5022195;28;20044;-79
2022/11/25 11:52:58;;;;;;;10.52;1.92;;;;;;;;;;5051764;28;20499;-79
2022/11/25 11:55:29;;;;;;;12.75;2.28;;;;;;;;;;5031448;28;20045;-80
2022/11/25 11:58:08;;;;;;;9.15;2.00;;;;;;;;;;5044539;28;20049;-80
2022/11/25 12:00:39;;;;;;;10.27;1.80;;;;;;;;;;5052739;28;20127;-79
2022/11/25 12:03:14;;;;;;;15.00;2.05;;;;;;;;;;5051206;28;20040;-80
2022/11/25 12:05:40;;;;;;;11.13;1.95;;;;;;;;;;5038436;28;20448;-80
2022/11/25 12:08:11;;;;;;;11.15;2.20;;;;;;;;;;5022010;28;20402;-80
2022/11/25 12:10:43;;;;;;;9.05;1.92;;;;;;;;;;5050984;28;20041;-80
2022/11/25 12:13:28;;;;;;;7.88;1.75;;;;;;;;;;5034587;28;20486;-80
2022/11/25 12:16:05;;;;;;;14.30;2.53;;;;;;;;;;5031937;28;20033;-80
2022/11/25 12:18:45;;;;;;;10.95;1.92;;;;;;;;;;5051680;28;20170;-80
2022/11/25 12:21:22;;;;;;;17.90;2.72;;;;;;;;;;5047146;28;20460;-80
2022/11/25 12:23:54;;;;;;;9.75;2.40;;;;;;;;;;5043732;28;20045;-80
2022/11/25 12:26:33;;;;;;;18.02;2.40;;;;;;;;;;5054609;28;20120;-79
2022/11/25 12:29:02;;;;;;;11.93;2.05;;;;;;;;;;5056809;28;20056;-79
2022/11/25 12:31:32;;;;;;;14.23;2.28;;;;;;;;;;5054692;28;20052;-79
2022/11/25 12:34:01;;;;;;;12.90;2.10;;;;;;;;;;5055556;28;20044;-80
2022/11/25 12:36:34;;;;;;;11.85;2.45;;;;;;;;;;5040402;28;20087;-80
2022/11/25 12:39:05;;;;;;;16.63;2.78;;;;;;;;;;5054993;28;20124;-80
2022/11/25 12:41:40;;;;;;;13.88;2.42;;;;;;;;;;5055841;28;20041;-80
2022/11/25 12:44:06;;;;;;;14.55;2.17;;;;;;;;;;5054939;28;20533;-80
2022/11/25 12:46:49;;;;;;;11.63;1.92;;;;;;;;;;5054823;28;20502;-80
2022/11/25 12:49:23;;;;;;;15.88;2.35;;;;;;;;;;5054340;28;20048;-80
2022/11/25 12:51:52;;;;;;;17.20;2.10;;;;;;;;;;5040338;28;20094;-80
2022/11/25 12:54:35;;;;;;;13.20;2.25;;;;;;;;;;5038125;28;20083;-80
2022/11/25 12:57:01;;;;;;;18.35;2.55;;;;;;;;;;5054690;28;20477;-80
2022/11/25 12:59:35;;;;;;;12.95;2.55;;;;;;;;;;5054022;28;20041;-80
2022/11/25 13:02:20;;;;;;;15.00;2.63;;;;;;;;;;5037785;28;20037;-80
2022/11/25 13:04:49;;;;;;;12.57;1.90;;;;;;;;;;5055513;28;20079;-80
2022/11/25 13:07:25;;;;;;;12.52;2.30;;;;;;;;;;5068320;28;20497;-80
2022/11/25 13:10:07;;;;;;;15.15;2.45;;;;;;;;;;5054259;28;20103;-80
2022/11/25 13:12:33;;;;;;;12.40;2.25;;;;;;;;;;5034236;28;20045;-80
2022/11/25 13:15:02;;;;;;;19.50;2.30;;;;;;;;;;5047498;28;20045;-80
2022/11/25 13:17:29;;;;;;;16.05;2.30;;;;;;;;;;5037042;28;20051;-80
2022/11/25 13:20:13;;;;;;;16.90;2.30;;;;;;;;;;5053923;28;20043;-80
2022/11/25 13:22:39;;;;;;;12.07;2.10;;;;;;;;;;5040939;28;20051;-80
2022/11/25 13:25:21;;;;;;;16.75;2.47;;;;;;;;;;5053948;28;20041;-80
2022/11/25 13:27:47;;;;;;;14.18;2.75;;;;;;;;;;5054140;28;20049;-80
2022/11/25 13:30:31;;;;;;;19.20;2.53;;;;;;;;;;5053796;28;20045;-80
2022/11/25 13:33:10;;;;;;;19.35;2.60;;;;;;;;;;5053855;28;20442;-80
2022/11/25 13:35:43;;;;;;;12.82;2.20;;;;;;;;;;5054843;28;20449;-80
2022/11/25 13:38:28;;;;;;;17.85;2.53;;;;;;;;;;5053231;28;20494;-80
2022/11/25 13:41:22;;;;;;;13.10;2.28;;;;;;;;;;5053652;28;20044;-80
2022/11/25 13:44:07;;;;;;;14.80;2.33;;;;;;;;;;5076157;28;20107;-80
2022/11/25 13:46:33;;;;;;;15.63;2.22;;;;;;;;;;5051052;28;20084;-80
2022/11/25 13:48:59;;;;;;;13.68;2.10;;;;;;;;;;5043257;28;20103;-80
2022/11/25 13:51:26;;;;;;;16.08;2.10;;;;;;;;;;5054430;28;20094;-80
2022/11/25 13:54:04;;;;;;;13.80;1.83;;;;;;;;;;5053556;28;20029;-80
2022/11/25 13:56:32;;;;;;;16.75;2.40;;;;;;;;;;5053089;28;20112;-80
2022/11/25 13:59:10;;;;;;;19.35;2.67;;;;;;;;;;5053730;28;20494;-80
2022/11/25 14:01:38;;;;;;;15.10;2.28;;;;;;;;;;5052928;28;20044;-80
2022/11/25 14:04:05;;;;;;;15.48;1.80;;;;;;;;;;5053265;28;20047;-80
2022/11/25 14:06:38;;;;;;;18.88;2.35;;;;;;;;;;5052993;28;20041;-80
2022/11/25 14:09:23;;;;;;;14.18;2.05;;;;;;;;;;5046795;28;20037;-80
2022/11/25 14:11:57;;;;;;;15.90;2.13;;;;;;;;;;5049792;28;20397;-80
2022/11/25 14:14:23;;;;;;;15.35;2.60;;;;;;;;;;5053189;28;20085;-80
2022/11/25 14:17:08;;;;;;;13.52;2.28;;;;;;;;;;5054419;28;20134;-80
2022/11/25 14:19:34;;;;;;;15.93;2.22;;;;;;;;;;5054480;28;20547;-80
2022/11/25 14:22:19;;;;;;;15.35;2.92;;;;;;;;;;5086647;28;20124;-80
2022/11/25 14:24:48;;;;;;;11.52;1.95;;;;;;;;;;5039117;28;20049;-81
2022/11/25 14:27:16;;;;;;;14.55;2.88;;;;;;;;;;5042209;28;20049;-80
2022/11/25 14:29:52;;;;;;;12.75;1.90;;;;;;;;;;5051604;28;20040;-80
2022/11/25 14:32:18;;;;;;;;;;;;;;;;;;5037072;28;20044;-81
2022/11/25 14:34:49;;;;;;;13.25;2.75;;;;;;;;;;5053683;28;19970;-80
2022/11/25 14:37:18;;;;;;;22.98;2.63;;;;;;;;;;5052659;28;20464;-81
2022/11/25 14:40:03;;;;;;;14.93;1.95;;;;;;;;;;5052715;28;20055;-81
2022/11/25 14:42:34;;;;;;;11.52;1.90;;;;;;;;;;5052314;28;20083;-81
2022/11/25 14:45:02;;;;;;;10.02;2.10;;;;;;;;;;5050146;28;20041;-80
2022/11/25 14:47:29;;;;;;;17.63;2.40;;;;;;;;;;5024811;28;20045;-81
2022/11/25 14:49:57;;;;;;;15.02;2.50;;;;;;;;;;5040432;28;20037;-80
2022/11/25 14:52:25;;;;;;;15.20;2.35;;;;;;;;;;5070352;28;20052;-80